sensor_id;sensor_type;location;lat;lon;timestamp;noise_LAeq;noise_LA_min;noise_LA_max;noise_LA01;noise_LA95
69619;Laerm;57653;51.434;5.984;2022-11-20T00:00:07;30.58;29.61;31.82;;
69619;Laerm;57653;51.434;5.984;2022-11-20T00:00:18;30.78;29.39;32.78;;
69619;Laerm;57653;51.434;5.984;2022-11-20T00:00:28;30.54;29.34;31.70;;
69619;Laerm;57653;51.434;5.984;2022-11-20T00:00:39;30.68;29.49;32.12;;
69619;Laerm;57653;51.434;5.984;2022-11-20T00:00:49;30.83;29.46;31.74;;
69619;Laerm;57653;51.434;5.984;2022-11-20T00:01:17;36.67;29.89;51.02;;
69619;Laerm;57653;51.434;5.984;2022-11-20T00:01:28;31.56;29.83;33.13;;
69619;Laerm;57653;51.434;5.984;2022-11-20T00:01:38;31.18;30.16;32.43;;
69619;Laerm;57653;51.434;5.984;2022-11-20T00:01:49;31.35;30.06;32.59;;
69619;Laerm;57653;51.434;5.984;2022-11-20T00:01:59;31.59;29.51;34.51;;
69619;Laerm;57653;51.434;5.984;2022-11-20T00:02:09;31.01;29.80;32.48;;
69619;Laerm;57653;51.434;5.984;2022-11-20T00:02:19;32.73;30.12;36.59;;
69619;Laerm;57653;51.434;5.984;2022-11-20T00:02:30;33.01;30.58;36.31;;
69619;Laerm;57653;51.434;5.984;2022-11-20T00:02:40;31.60;30.14;34.31;;
69619;Laerm;57653;51.434;5.984;2022-11-20T00:02:50;32.19;30.65;33.89;;
69619;Laerm;57653;51.434;5.984;2022-11-20T00:03:00;32.51;30.96;39.50;;
69619;Laerm;57653;51.434;5.984;2022-11-20T00:03:11;38.15;30.83;46.98;;
69619;Laerm;57653;51.434;5.984;2022-11-20T00:03:21;57.87;45.00;62.02;;
69619;Laerm;57653;51.434;5.984;2022-11-20T00:03:31;54.75;41.97;60.33;;
69619;Laerm;57653;51.434;5.984;2022-11-20T00:03:42;38.19;31.39;44.80;;
69619;Laerm;57653;51.434;5.984;2022-11-20T00:03:53;31.64;29.78;38.68;;
69619;Laerm;57653;51.434;5.984;2022-11-20T00:04:03;31.46;29.47;44.58;;
69619;Laerm;57653;51.434;5.984;2022-11-20T00:04:14;30.58;29.72;31.90;;
69619;Laerm;57653;51.434;5.984;2022-11-20T00:04:24;30.63;29.47;31.61;;
69619;Laerm;57653;51.434;5.984;2022-11-20T00:04:34;30.72;29.14;33.92;;
69619;Laerm;57653;51.434;5.984;2022-11-20T00:04:44;30.80;29.65;33.77;;
69619;Laerm;57653;51.434;5.984;2022-11-20T00:04:55;30.85;29.63;32.14;;
69619;Laerm;57653;51.434;5.984;2022-11-20T00:05:05;30.79;29.48;32.41;;
69619;Laerm;57653;51.434;5.984;2022-11-20T00:05:15;30.56;29.47;31.47;;
69619;Laerm;57653;51.434;5.984;2022-11-20T00:05:26;30.84;29.86;32.43;;
69619;Laerm;57653;51.434;5.984;2022-11-20T00:05:36;30.57;29.49;32.56;;
69619;Laerm;57653;51.434;5.984;2022-11-20T00:05:46;30.89;29.82;31.86;;
69619;Laerm;57653;51.434;5.984;2022-11-20T00:06:00;31.21;30.18;37.31;;
69619;Laerm;57653;51.434;5.984;2022-11-20T00:06:12;30.82;29.53;32.20;;
69619;Laerm;57653;51.434;5.984;2022-11-20T00:06:22;30.72;29.68;31.93;;
69619;Laerm;57653;51.434;5.984;2022-11-20T00:06:33;30.81;29.78;32.92;;
69619;Laerm;57653;51.434;5.984;2022-11-20T00:06:43;30.51;29.43;31.51;;
69619;Laerm;57653;51.434;5.984;2022-11-20T00:06:53;30.48;29.53;31.61;;
69619;Laerm;57653;51.434;5.984;2022-11-20T00:07:03;30.48;29.37;31.54;;
69619;Laerm;57653;51.434;5.984;2022-11-20T00:07:14;30.38;29.54;31.33;;
69619;Laerm;57653;51.434;5.984;2022-11-20T00:07:24;30.53;29.55;31.65;;
69619;Laerm;57653;51.434;5.984;2022-11-20T00:07:34;30.54;29.68;31.97;;
69619;Laerm;57653;51.434;5.984;2022-11-20T00:07:45;30.54;29.40;31.81;;
69619;Laerm;57653;51.434;5.984;2022-11-20T00:07:55;30.66;29.36;32.81;;
69619;Laerm;57653;51.434;5.984;2022-11-20T00:08:05;30.54;29.47;34.24;;
69619;Laerm;57653;51.434;5.984;2022-11-20T00:08:16;30.48;29.41;32.57;;
69619;Laerm;57653;51.434;5.984;2022-11-20T00:08:26;30.46;29.37;34.07;;
69619;Laerm;57653;51.434;5.984;2022-11-20T00:08:36;30.38;29.33;32.71;;
69619;Laerm;57653;51.434;5.984;2022-11-20T00:08:47;30.41;29.26;31.24;;
69619;Laerm;57653;51.434;5.984;2022-11-20T00:08:58;30.67;29.65;31.97;;
69619;Laerm;57653;51.434;5.984;2022-11-20T00:09:10;30.46;29.54;32.82;;
69619;Laerm;57653;51.434;5.984;2022-11-20T00:09:20;30.40;29.19;31.18;;
69619;Laerm;57653;51.434;5.984;2022-11-20T00:09:30;30.58;29.73;31.86;;
69619;Laerm;57653;51.434;5.984;2022-11-20T00:09:41;31.33;29.51;41.84;;
69619;Laerm;57653;51.434;5.984;2022-11-20T00:09:51;30.55;29.29;31.40;;
69619;Laerm;57653;51.434;5.984;2022-11-20T00:10:01;30.73;29.46;31.99;;
69619;Laerm;57653;51.434;5.984;2022-11-20T00:10:11;30.73;29.60;32.03;;
69619;Laerm;57653;51.434;5.984;2022-11-20T00:10:22;30.78;29.56;33.83;;
69619;Laerm;57653;51.434;5.984;2022-11-20T00:10:32;32.51;29.79;43.67;;
69619;Laerm;57653;51.434;5.984;2022-11-20T00:10:42;30.84;28.96;39.73;;
69619;Laerm;57653;51.434;5.984;2022-11-20T00:10:52;30.37;29.28;31.47;;
69619;Laerm;57653;51.434;5.984;2022-11-20T00:11:04;30.41;29.12;31.70;;
69619;Laerm;57653;51.434;5.984;2022-11-20T00:11:16;30.50;29.44;36.18;;
69619;Laerm;57653;51.434;5.984;2022-11-20T00:11:27;31.12;29.32;38.65;;
69619;Laerm;57653;51.434;5.984;2022-11-20T00:11:37;36.66;29.78;45.99;;
69619;Laerm;57653;51.434;5.984;2022-11-20T00:11:47;36.78;33.23;39.99;;
69619;Laerm;57653;51.434;5.984;2022-11-20T00:11:58;32.22;29.73;35.19;;
69619;Laerm;57653;51.434;5.984;2022-11-20T00:12:08;30.55;29.63;31.48;;
69619;Laerm;57653;51.434;5.984;2022-11-20T00:12:18;30.69;29.60;31.98;;
69619;Laerm;57653;51.434;5.984;2022-11-20T00:12:29;30.76;29.48;32.14;;
69619;Laerm;57653;51.434;5.984;2022-11-20T00:12:39;30.63;29.56;32.78;;
69619;Laerm;57653;51.434;5.984;2022-11-20T00:12:49;30.66;29.54;31.76;;
69619;Laerm;57653;51.434;5.984;2022-11-20T00:13:00;30.91;29.64;32.49;;
69619;Laerm;57653;51.434;5.984;2022-11-20T00:13:10;30.70;29.56;32.22;;
69619;Laerm;57653;51.434;5.984;2022-11-20T00:13:20;30.72;29.70;31.75;;
69619;Laerm;57653;51.434;5.984;2022-11-20T00:13:31;30.80;29.47;34.52;;
69619;Laerm;57653;51.434;5.984;2022-11-20T00:13:41;30.64;29.50;31.51;;
69619;Laerm;57653;51.434;5.984;2022-11-20T00:13:54;30.48;29.27;31.79;;
69619;Laerm;57653;51.434;5.984;2022-11-20T00:14:04;30.46;29.43;32.05;;
69619;Laerm;57653;51.434;5.984;2022-11-20T00:14:14;30.39;29.15;31.34;;
69619;Laerm;57653;51.434;5.984;2022-11-20T00:14:25;30.70;29.34;37.67;;
69619;Laerm;57653;51.434;5.984;2022-11-20T00:14:35;30.65;29.34;33.39;;
69619;Laerm;57653;51.434;5.984;2022-11-20T00:14:45;30.48;29.27;33.66;;
69619;Laerm;57653;51.434;5.984;2022-11-20T00:14:55;30.42;29.40;31.44;;
69619;Laerm;57653;51.434;5.984;2022-11-20T00:15:06;30.68;29.48;33.97;;
69619;Laerm;57653;51.434;5.984;2022-11-20T00:15:16;30.79;29.51;31.99;;
69619;Laerm;57653;51.434;5.984;2022-11-20T00:15:26;30.71;29.38;31.85;;
69619;Laerm;57653;51.434;5.984;2022-11-20T00:15:37;31.13;29.56;37.16;;
69619;Laerm;57653;51.434;5.984;2022-11-20T00:15:47;30.43;29.33;31.49;;
69619;Laerm;57653;51.434;5.984;2022-11-20T00:15:58;30.60;29.49;32.11;;
69619;Laerm;57653;51.434;5.984;2022-11-20T00:16:08;30.61;29.17;36.86;;
69619;Laerm;57653;51.434;5.984;2022-11-20T00:16:20;30.44;29.29;32.31;;
69619;Laerm;57653;51.434;5.984;2022-11-20T00:16:32;30.44;29.35;31.51;;
69619;Laerm;57653;51.434;5.984;2022-11-20T00:16:42;30.67;29.42;36.08;;
69619;Laerm;57653;51.434;5.984;2022-11-20T00:16:53;30.49;29.36;31.82;;
69619;Laerm;57653;51.434;5.984;2022-11-20T00:17:03;30.44;29.37;32.36;;
69619;Laerm;57653;51.434;5.984;2022-11-20T00:17:13;30.51;29.60;31.41;;
69619;Laerm;57653;51.434;5.984;2022-11-20T00:17:23;30.78;29.68;31.95;;
69619;Laerm;57653;51.434;5.984;2022-11-20T00:17:34;31.42;29.37;38.83;;
69619;Laerm;57653;51.434;5.984;2022-11-20T00:17:44;30.55;29.26;31.86;;
69619;Laerm;57653;51.434;5.984;2022-11-20T00:17:54;30.51;29.45;31.50;;
69619;Laerm;57653;51.434;5.984;2022-11-20T00:18:05;30.61;29.61;31.70;;
69619;Laerm;57653;51.434;5.984;2022-11-20T00:18:15;30.73;29.62;31.91;;
69619;Laerm;57653;51.434;5.984;2022-11-20T00:18:25;30.47;29.42;32.40;;
69619;Laerm;57653;51.434;5.984;2022-11-20T00:18:36;30.46;29.50;31.76;;
69619;Laerm;57653;51.434;5.984;2022-11-20T00:18:46;30.73;29.53;33.02;;
69619;Laerm;57653;51.434;5.984;2022-11-20T00:18:57;30.74;29.28;35.08;;
69619;Laerm;57653;51.434;5.984;2022-11-20T00:19:07;31.17;29.34;40.05;;
69619;Laerm;57653;51.434;5.984;2022-11-20T00:19:17;31.24;29.69;38.30;;
69619;Laerm;57653;51.434;5.984;2022-11-20T00:19:28;30.61;29.42;31.85;;
69619;Laerm;57653;51.434;5.984;2022-11-20T00:19:38;30.89;29.68;32.34;;
69619;Laerm;57653;51.434;5.984;2022-11-20T00:19:48;32.31;29.81;37.37;;
69619;Laerm;57653;51.434;5.984;2022-11-20T00:19:59;32.27;30.29;34.55;;
69619;Laerm;57653;51.434;5.984;2022-11-20T00:20:09;30.86;29.53;32.56;;
69619;Laerm;57653;51.434;5.984;2022-11-20T00:20:20;30.58;29.53;32.15;;
69619;Laerm;57653;51.434;5.984;2022-11-20T00:20:30;30.65;29.36;31.92;;
69619;Laerm;57653;51.434;5.984;2022-11-20T00:20:40;30.60;29.50;31.89;;
69619;Laerm;57653;51.434;5.984;2022-11-20T00:20:51;30.74;29.16;31.96;;
69619;Laerm;57653;51.434;5.984;2022-11-20T00:21:05;30.55;29.43;31.89;;
69619;Laerm;57653;51.434;5.984;2022-11-20T00:21:17;30.64;29.52;31.99;;
69619;Laerm;57653;51.434;5.984;2022-11-20T00:21:28;30.69;29.67;31.74;;
69619;Laerm;57653;51.434;5.984;2022-11-20T00:21:38;30.91;29.54;32.42;;
69619;Laerm;57653;51.434;5.984;2022-11-20T00:21:48;30.68;29.50;32.09;;
69619;Laerm;57653;51.434;5.984;2022-11-20T00:22:01;30.63;29.27;31.90;;
69619;Laerm;57653;51.434;5.984;2022-11-20T00:22:11;30.61;29.60;32.42;;
69619;Laerm;57653;51.434;5.984;2022-11-20T00:22:22;30.51;29.63;31.89;;
69619;Laerm;57653;51.434;5.984;2022-11-20T00:22:32;30.42;29.34;31.38;;
69619;Laerm;57653;51.434;5.984;2022-11-20T00:22:42;30.89;29.23;36.67;;
69619;Laerm;57653;51.434;5.984;2022-11-20T00:22:52;30.42;28.89;31.46;;
69619;Laerm;57653;51.434;5.984;2022-11-20T00:23:03;30.40;29.35;32.01;;
69619;Laerm;57653;51.434;5.984;2022-11-20T00:23:13;30.49;29.30;31.91;;
69619;Laerm;57653;51.434;5.984;2022-11-20T00:23:23;30.67;29.46;32.93;;
69619;Laerm;57653;51.434;5.984;2022-11-20T00:23:33;31.47;29.51;36.77;;
69619;Laerm;57653;51.434;5.984;2022-11-20T00:23:44;33.52;29.75;43.23;;
69619;Laerm;57653;51.434;5.984;2022-11-20T00:23:55;31.98;29.61;42.56;;
69619;Laerm;57653;51.434;5.984;2022-11-20T00:24:08;31.19;29.27;35.21;;
69619;Laerm;57653;51.434;5.984;2022-11-20T00:24:18;30.84;28.96;33.73;;
69619;Laerm;57653;51.434;5.984;2022-11-20T00:24:28;30.44;29.31;31.58;;
69619;Laerm;57653;51.434;5.984;2022-11-20T00:24:39;30.63;29.62;33.79;;
69619;Laerm;57653;51.434;5.984;2022-11-20T00:24:49;32.65;29.89;38.05;;
69619;Laerm;57653;51.434;5.984;2022-11-20T00:24:59;39.08;35.67;43.19;;
69619;Laerm;57653;51.434;5.984;2022-11-20T00:25:09;34.39;29.90;40.27;;
69619;Laerm;57653;51.434;5.984;2022-11-20T00:25:20;30.65;29.45;32.08;;
69619;Laerm;57653;51.434;5.984;2022-11-20T00:25:30;30.54;29.61;31.76;;
69619;Laerm;57653;51.434;5.984;2022-11-20T00:25:40;30.77;29.66;31.92;;
69619;Laerm;57653;51.434;5.984;2022-11-20T00:25:51;30.56;29.65;31.77;;
69619;Laerm;57653;51.434;5.984;2022-11-20T00:26:11;30.43;29.45;31.39;;
69619;Laerm;57653;51.434;5.984;2022-11-20T00:26:23;30.58;29.34;32.11;;
69619;Laerm;57653;51.434;5.984;2022-11-20T00:26:33;30.61;29.47;31.98;;
69619;Laerm;57653;51.434;5.984;2022-11-20T00:26:44;30.68;29.65;31.79;;
69619;Laerm;57653;51.434;5.984;2022-11-20T00:26:54;30.51;29.51;31.54;;
69619;Laerm;57653;51.434;5.984;2022-11-20T00:27:04;30.55;29.74;31.76;;
69619;Laerm;57653;51.434;5.984;2022-11-20T00:27:14;30.45;29.53;31.63;;
69619;Laerm;57653;51.434;5.984;2022-11-20T00:27:25;30.47;29.46;31.83;;
69619;Laerm;57653;51.434;5.984;2022-11-20T00:27:35;30.55;28.82;32.05;;
69619;Laerm;57653;51.434;5.984;2022-11-20T00:27:45;30.60;29.36;33.30;;
69619;Laerm;57653;51.434;5.984;2022-11-20T00:27:56;30.53;28.99;32.65;;
69619;Laerm;57653;51.434;5.984;2022-11-20T00:28:06;30.74;29.50;34.84;;
69619;Laerm;57653;51.434;5.984;2022-11-20T00:28:16;30.72;29.29;36.00;;
69619;Laerm;57653;51.434;5.984;2022-11-20T00:28:26;31.07;29.46;39.52;;
69619;Laerm;57653;51.434;5.984;2022-11-20T00:28:37;30.96;29.58;39.49;;
69619;Laerm;57653;51.434;5.984;2022-11-20T00:28:51;30.74;29.57;36.57;;
69619;Laerm;57653;51.434;5.984;2022-11-20T00:29:02;30.62;29.37;32.69;;
69619;Laerm;57653;51.434;5.984;2022-11-20T00:29:12;30.54;29.41;33.37;;
69619;Laerm;57653;51.434;5.984;2022-11-20T00:29:23;30.58;29.45;31.62;;
69619;Laerm;57653;51.434;5.984;2022-11-20T00:29:33;30.62;29.23;31.62;;
69619;Laerm;57653;51.434;5.984;2022-11-20T00:29:43;30.65;29.44;34.60;;
69619;Laerm;57653;51.434;5.984;2022-11-20T00:29:53;30.50;29.42;32.37;;
69619;Laerm;57653;51.434;5.984;2022-11-20T00:30:04;34.07;29.53;44.13;;
69619;Laerm;57653;51.434;5.984;2022-11-20T00:30:14;30.53;29.40;31.79;;
69619;Laerm;57653;51.434;5.984;2022-11-20T00:30:25;30.46;29.41;31.46;;
69619;Laerm;57653;51.434;5.984;2022-11-20T00:30:35;30.50;29.45;31.29;;
69619;Laerm;57653;51.434;5.984;2022-11-20T00:30:45;30.55;29.48;33.07;;
69619;Laerm;57653;51.434;5.984;2022-11-20T00:31:06;31.41;29.32;41.63;;
69619;Laerm;57653;51.434;5.984;2022-11-20T00:31:17;31.90;29.51;42.39;;
69619;Laerm;57653;51.434;5.984;2022-11-20T00:31:28;30.66;29.47;31.72;;
69619;Laerm;57653;51.434;5.984;2022-11-20T00:31:39;30.67;29.48;32.11;;
69619;Laerm;57653;51.434;5.984;2022-11-20T00:31:49;30.72;29.68;31.83;;
69619;Laerm;57653;51.434;5.984;2022-11-20T00:31:59;30.63;29.46;31.74;;
69619;Laerm;57653;51.434;5.984;2022-11-20T00:32:09;35.48;29.62;49.50;;
69619;Laerm;57653;51.434;5.984;2022-11-20T00:32:20;30.63;29.19;32.08;;
69619;Laerm;57653;51.434;5.984;2022-11-20T00:32:30;30.72;29.55;32.24;;
69619;Laerm;57653;51.434;5.984;2022-11-20T00:32:40;30.75;29.46;31.78;;
69619;Laerm;57653;51.434;5.984;2022-11-20T00:32:50;30.71;29.32;32.13;;
69619;Laerm;57653;51.434;5.984;2022-11-20T00:33:01;30.75;29.55;33.35;;
69619;Laerm;57653;51.434;5.984;2022-11-20T00:33:11;31.68;29.64;38.78;;
69619;Laerm;57653;51.434;5.984;2022-11-20T00:33:21;30.73;29.45;33.58;;
69619;Laerm;57653;51.434;5.984;2022-11-20T00:33:31;30.61;29.11;32.01;;
69619;Laerm;57653;51.434;5.984;2022-11-20T00:33:42;30.62;29.50;32.73;;
69619;Laerm;57653;51.434;5.984;2022-11-20T00:33:53;30.52;29.22;31.71;;
69619;Laerm;57653;51.434;5.984;2022-11-20T00:34:03;30.61;29.36;32.05;;
69619;Laerm;57653;51.434;5.984;2022-11-20T00:34:13;31.02;29.64;36.49;;
69619;Laerm;57653;51.434;5.984;2022-11-20T00:34:24;30.62;29.53;31.52;;
69619;Laerm;57653;51.434;5.984;2022-11-20T00:34:34;30.69;29.35;31.83;;
69619;Laerm;57653;51.434;5.984;2022-11-20T00:34:44;30.62;29.39;31.83;;
69619;Laerm;57653;51.434;5.984;2022-11-20T00:34:55;31.07;29.99;32.70;;
69619;Laerm;57653;51.434;5.984;2022-11-20T00:35:05;31.77;29.92;34.97;;
69619;Laerm;57653;51.434;5.984;2022-11-20T00:35:15;31.12;29.69;32.72;;
69619;Laerm;57653;51.434;5.984;2022-11-20T00:35:25;30.82;29.61;32.13;;
69619;Laerm;57653;51.434;5.984;2022-11-20T00:35:36;30.67;29.64;32.00;;
69619;Laerm;57653;51.434;5.984;2022-11-20T00:35:46;30.64;29.40;33.24;;
69619;Laerm;57653;51.434;5.984;2022-11-20T00:36:03;30.62;29.35;35.74;;
69619;Laerm;57653;51.434;5.984;2022-11-20T00:36:24;30.73;29.32;34.64;;
69619;Laerm;57653;51.434;5.984;2022-11-20T00:36:34;30.61;29.13;32.62;;
69619;Laerm;57653;51.434;5.984;2022-11-20T00:36:45;30.66;29.48;31.80;;
69619;Laerm;57653;51.434;5.984;2022-11-20T00:36:55;30.56;29.33;31.72;;
69619;Laerm;57653;51.434;5.984;2022-11-20T00:37:05;30.45;29.39;31.83;;
69619;Laerm;57653;51.434;5.984;2022-11-20T00:37:16;30.46;29.25;31.25;;
69619;Laerm;57653;51.434;5.984;2022-11-20T00:37:26;30.44;29.28;31.39;;
69619;Laerm;57653;51.434;5.984;2022-11-20T00:37:36;30.52;29.42;31.67;;
69619;Laerm;57653;51.434;5.984;2022-11-20T00:37:46;30.50;29.31;31.61;;
69619;Laerm;57653;51.434;5.984;2022-11-20T00:37:57;30.51;29.39;31.42;;
69619;Laerm;57653;51.434;5.984;2022-11-20T00:38:07;30.51;29.55;31.45;;
69619;Laerm;57653;51.434;5.984;2022-11-20T00:38:17;30.51;29.24;31.78;;
69619;Laerm;57653;51.434;5.984;2022-11-20T00:38:27;30.48;29.48;31.42;;
69619;Laerm;57653;51.434;5.984;2022-11-20T00:38:38;30.75;29.26;35.26;;
69619;Laerm;57653;51.434;5.984;2022-11-20T00:38:51;30.78;29.52;32.24;;
69619;Laerm;57653;51.434;5.984;2022-11-20T00:39:02;30.89;29.64;32.40;;
69619;Laerm;57653;51.434;5.984;2022-11-20T00:39:12;30.79;29.57;32.15;;
69619;Laerm;57653;51.434;5.984;2022-11-20T00:39:23;30.59;29.56;31.71;;
69619;Laerm;57653;51.434;5.984;2022-11-20T00:39:33;31.14;29.68;32.92;;
69619;Laerm;57653;51.434;5.984;2022-11-20T00:39:43;30.73;29.68;32.76;;
69619;Laerm;57653;51.434;5.984;2022-11-20T00:39:53;30.54;29.51;31.77;;
69619;Laerm;57653;51.434;5.984;2022-11-20T00:40:04;30.56;29.47;31.34;;
69619;Laerm;57653;51.434;5.984;2022-11-20T00:40:14;30.55;29.55;31.56;;
69619;Laerm;57653;51.434;5.984;2022-11-20T00:40:24;30.54;29.64;33.94;;
69619;Laerm;57653;51.434;5.984;2022-11-20T00:40:35;30.58;29.00;31.63;;
69619;Laerm;57653;51.434;5.984;2022-11-20T00:40:45;30.54;29.31;31.41;;
69619;Laerm;57653;51.434;5.984;2022-11-20T00:40:56;30.56;29.61;31.74;;
69619;Laerm;57653;51.434;5.984;2022-11-20T00:41:07;30.53;29.47;31.66;;
69619;Laerm;57653;51.434;5.984;2022-11-20T00:41:18;30.46;29.29;31.56;;
69619;Laerm;57653;51.434;5.984;2022-11-20T00:41:28;30.56;29.50;31.54;;
69619;Laerm;57653;51.434;5.984;2022-11-20T00:41:39;30.65;29.59;34.52;;
69619;Laerm;57653;51.434;5.984;2022-11-20T00:41:49;30.58;29.42;31.49;;
69619;Laerm;57653;51.434;5.984;2022-11-20T00:42:00;30.55;29.25;31.60;;
69619;Laerm;57653;51.434;5.984;2022-11-20T00:42:10;30.48;29.44;31.66;;
69619;Laerm;57653;51.434;5.984;2022-11-20T00:42:20;30.54;29.48;31.50;;
69619;Laerm;57653;51.434;5.984;2022-11-20T00:42:30;30.56;29.56;31.60;;
69619;Laerm;57653;51.434;5.984;2022-11-20T00:42:43;30.57;29.51;32.66;;
69619;Laerm;57653;51.434;5.984;2022-11-20T00:42:54;30.73;29.52;31.88;;
69619;Laerm;57653;51.434;5.984;2022-11-20T00:43:04;30.96;29.98;32.42;;
69619;Laerm;57653;51.434;5.984;2022-11-20T00:43:14;30.78;29.70;31.96;;
69619;Laerm;57653;51.434;5.984;2022-11-20T00:43:25;30.92;29.53;32.25;;
69619;Laerm;57653;51.434;5.984;2022-11-20T00:43:35;30.72;29.71;32.05;;
69619;Laerm;57653;51.434;5.984;2022-11-20T00:43:46;30.83;29.61;32.00;;
69619;Laerm;57653;51.434;5.984;2022-11-20T00:43:56;31.60;29.72;35.45;;
69619;Laerm;57653;51.434;5.984;2022-11-20T00:44:06;30.70;29.55;31.65;;
69619;Laerm;57653;51.434;5.984;2022-11-20T00:44:17;30.65;29.72;31.72;;
69619;Laerm;57653;51.434;5.984;2022-11-20T00:44:27;30.69;29.77;31.65;;
69619;Laerm;57653;51.434;5.984;2022-11-20T00:44:37;30.60;29.72;31.66;;
69619;Laerm;57653;51.434;5.984;2022-11-20T00:44:47;30.64;29.30;33.32;;
69619;Laerm;57653;51.434;5.984;2022-11-20T00:44:58;30.61;29.53;31.72;;
69619;Laerm;57653;51.434;5.984;2022-11-20T00:45:08;30.69;29.68;31.57;;
69619;Laerm;57653;51.434;5.984;2022-11-20T00:45:18;30.64;29.82;31.78;;
69619;Laerm;57653;51.434;5.984;2022-11-20T00:45:29;30.76;29.65;31.75;;
69619;Laerm;57653;51.434;5.984;2022-11-20T00:45:40;31.04;29.53;40.07;;
69619;Laerm;57653;51.434;5.984;2022-11-20T00:45:50;30.73;29.59;32.35;;
69619;Laerm;57653;51.434;5.984;2022-11-20T00:46:04;30.79;29.72;34.25;;
69619;Laerm;57653;51.434;5.984;2022-11-20T00:46:16;30.74;29.69;31.73;;
69619;Laerm;57653;51.434;5.984;2022-11-20T00:46:27;30.97;29.84;36.42;;
69619;Laerm;57653;51.434;5.984;2022-11-20T00:46:37;30.88;29.36;34.37;;
69619;Laerm;57653;51.434;5.984;2022-11-20T00:46:47;30.96;29.77;36.16;;
69619;Laerm;57653;51.434;5.984;2022-11-20T00:46:58;30.90;29.62;36.81;;
69619;Laerm;57653;51.434;5.984;2022-11-20T00:47:08;31.21;29.76;32.73;;
69619;Laerm;57653;51.434;5.984;2022-11-20T00:47:18;31.77;30.07;34.44;;
69619;Laerm;57653;51.434;5.984;2022-11-20T00:47:29;31.69;29.92;36.52;;
69619;Laerm;57653;51.434;5.984;2022-11-20T00:47:39;31.00;29.93;31.95;;
69619;Laerm;57653;51.434;5.984;2022-11-20T00:47:49;31.26;30.17;32.17;;
69619;Laerm;57653;51.434;5.984;2022-11-20T00:47:59;31.25;30.01;33.34;;
69619;Laerm;57653;51.434;5.984;2022-11-20T00:48:09;31.32;30.31;32.44;;
69619;Laerm;57653;51.434;5.984;2022-11-20T00:48:20;31.05;30.11;32.00;;
69619;Laerm;57653;51.434;5.984;2022-11-20T00:48:30;31.13;29.82;32.24;;
69619;Laerm;57653;51.434;5.984;2022-11-20T00:48:40;31.23;29.89;33.00;;
69619;Laerm;57653;51.434;5.984;2022-11-20T00:48:51;31.26;30.23;32.64;;
69619;Laerm;57653;51.434;5.984;2022-11-20T00:49:01;31.29;30.15;32.62;;
69619;Laerm;57653;51.434;5.984;2022-11-20T00:49:11;31.25;29.97;32.88;;
69619;Laerm;57653;51.434;5.984;2022-11-20T00:49:22;31.94;30.15;35.11;;
69619;Laerm;57653;51.434;5.984;2022-11-20T00:49:32;33.48;31.21;37.21;;
69619;Laerm;57653;51.434;5.984;2022-11-20T00:49:42;31.56;30.32;33.30;;
69619;Laerm;57653;51.434;5.984;2022-11-20T00:49:52;31.93;30.56;33.84;;
69619;Laerm;57653;51.434;5.984;2022-11-20T00:50:03;32.21;30.35;34.48;;
69619;Laerm;57653;51.434;5.984;2022-11-20T00:50:13;31.94;30.72;33.75;;
69619;Laerm;57653;51.434;5.984;2022-11-20T00:50:23;31.65;30.46;32.92;;
69619;Laerm;57653;51.434;5.984;2022-11-20T00:50:34;31.99;30.50;35.09;;
69619;Laerm;57653;51.434;5.984;2022-11-20T00:50:44;32.51;30.61;35.71;;
69619;Laerm;57653;51.434;5.984;2022-11-20T00:50:54;31.35;30.39;32.27;;
69619;Laerm;57653;51.434;5.984;2022-11-20T00:51:05;31.45;30.12;32.55;;
69619;Laerm;57653;51.434;5.984;2022-11-20T00:51:16;31.40;30.22;33.41;;
69619;Laerm;57653;51.434;5.984;2022-11-20T00:51:27;31.30;30.20;32.53;;
69619;Laerm;57653;51.434;5.984;2022-11-20T00:51:38;31.25;29.96;33.89;;
69619;Laerm;57653;51.434;5.984;2022-11-20T00:51:48;31.28;30.00;32.57;;
69619;Laerm;57653;51.434;5.984;2022-11-20T00:51:58;31.31;30.18;32.52;;
69619;Laerm;57653;51.434;5.984;2022-11-20T00:52:09;31.32;30.33;32.31;;
69619;Laerm;57653;51.434;5.984;2022-11-20T00:52:19;31.27;30.22;32.21;;
69619;Laerm;57653;51.434;5.984;2022-11-20T00:52:29;31.26;30.01;32.59;;
69619;Laerm;57653;51.434;5.984;2022-11-20T00:52:40;31.25;29.97;32.25;;
69619;Laerm;57653;51.434;5.984;2022-11-20T00:52:50;31.39;30.29;32.65;;
69619;Laerm;57653;51.434;5.984;2022-11-20T00:53:00;31.85;30.30;40.53;;
69619;Laerm;57653;51.434;5.984;2022-11-20T00:53:10;31.67;30.58;39.31;;
69619;Laerm;57653;51.434;5.984;2022-11-20T00:53:21;31.73;30.57;35.75;;
69619;Laerm;57653;51.434;5.984;2022-11-20T00:53:31;31.77;30.42;37.44;;
69619;Laerm;57653;51.434;5.984;2022-11-20T00:53:42;31.92;30.41;38.12;;
69619;Laerm;57653;51.434;5.984;2022-11-20T00:53:54;31.96;30.72;38.76;;
69619;Laerm;57653;51.434;5.984;2022-11-20T00:54:04;32.13;30.67;36.75;;
69619;Laerm;57653;51.434;5.984;2022-11-20T00:54:15;31.94;30.64;35.19;;
69619;Laerm;57653;51.434;5.984;2022-11-20T00:54:25;31.74;30.51;34.49;;
69619;Laerm;57653;51.434;5.984;2022-11-20T00:54:35;31.70;30.49;37.57;;
69619;Laerm;57653;51.434;5.984;2022-11-20T00:54:45;31.64;30.52;35.15;;
69619;Laerm;57653;51.434;5.984;2022-11-20T00:54:56;31.84;30.71;38.11;;
69619;Laerm;57653;51.434;5.984;2022-11-20T00:55:06;32.74;30.53;46.36;;
69619;Laerm;57653;51.434;5.984;2022-11-20T00:55:16;32.05;30.69;42.55;;
69619;Laerm;57653;51.434;5.984;2022-11-20T00:55:26;31.79;30.60;36.06;;
69619;Laerm;57653;51.434;5.984;2022-11-20T00:55:37;31.69;30.34;32.91;;
69619;Laerm;57653;51.434;5.984;2022-11-20T00:55:57;31.75;30.27;35.58;;
69619;Laerm;57653;51.434;5.984;2022-11-20T00:56:11;31.70;30.33;36.34;;
69619;Laerm;57653;51.434;5.984;2022-11-20T00:56:22;31.66;30.44;32.73;;
69619;Laerm;57653;51.434;5.984;2022-11-20T00:56:32;31.74;30.61;33.92;;
69619;Laerm;57653;51.434;5.984;2022-11-20T00:56:43;31.83;30.71;33.63;;
69619;Laerm;57653;51.434;5.984;2022-11-20T00:56:53;31.98;30.64;34.53;;
69619;Laerm;57653;51.434;5.984;2022-11-20T00:57:03;31.90;30.81;34.72;;
69619;Laerm;57653;51.434;5.984;2022-11-20T00:57:13;31.83;30.70;33.02;;
69619;Laerm;57653;51.434;5.984;2022-11-20T00:57:24;31.81;30.48;33.43;;
69619;Laerm;57653;51.434;5.984;2022-11-20T00:57:34;31.80;30.72;32.80;;
69619;Laerm;57653;51.434;5.984;2022-11-20T00:57:44;31.90;30.52;32.80;;
69619;Laerm;57653;51.434;5.984;2022-11-20T00:57:54;31.94;30.80;33.01;;
69619;Laerm;57653;51.434;5.984;2022-11-20T00:58:05;32.00;31.03;33.05;;
69619;Laerm;57653;51.434;5.984;2022-11-20T00:58:15;32.10;31.02;33.10;;
69619;Laerm;57653;51.434;5.984;2022-11-20T00:58:30;33.16;31.50;34.95;;
69619;Laerm;57653;51.434;5.984;2022-11-20T00:58:41;33.33;31.32;36.08;;
69619;Laerm;57653;51.434;5.984;2022-11-20T00:58:52;34.88;31.28;38.57;;
69619;Laerm;57653;51.434;5.984;2022-11-20T00:59:02;32.97;31.42;35.33;;
69619;Laerm;57653;51.434;5.984;2022-11-20T00:59:12;32.69;31.22;34.43;;
69619;Laerm;57653;51.434;5.984;2022-11-20T00:59:23;32.53;31.10;34.21;;
69619;Laerm;57653;51.434;5.984;2022-11-20T00:59:33;32.35;31.01;34.40;;
69619;Laerm;57653;51.434;5.984;2022-11-20T00:59:43;34.23;31.59;37.64;;
69619;Laerm;57653;51.434;5.984;2022-11-20T00:59:53;36.10;32.65;41.53;;